sensor_id;sensor_type;location;lat;lon;timestamp;pressure;altitude;pressure_sealevel;temperature
45976;BMP280;31696;42.668;23.322;2023-10-31T00:00:13;94944.38;;;11.12
45976;BMP280;31696;42.668;23.322;2023-10-31T00:02:14;94942.81;;;11.08
45976;BMP280;31696;42.668;23.322;2023-10-31T00:04:14;94943.13;;;11.13
45976;BMP280;31696;42.668;23.322;2023-10-31T00:06:15;94943.84;;;11.21
45976;BMP280;31696;42.668;23.322;2023-10-31T00:08:15;94941.59;;;11.17
45976;BMP280;31696;42.668;23.322;2023-10-31T00:10:15;94944.00;;;11.07
45976;BMP280;31696;42.668;23.322;2023-10-31T00:12:16;94947.31;;;11.00
45976;BMP280;31696;42.668;23.322;2023-10-31T00:14:16;94939.34;;;10.98
45976;BMP280;31696;42.668;23.322;2023-10-31T00:16:17;94935.50;;;11.07
45976;BMP280;31696;42.668;23.322;2023-10-31T00:18:17;94938.31;;;11.17
45976;BMP280;31696;42.668;23.322;2023-10-31T00:20:17;94934.66;;;11.04
45976;BMP280;31696;42.668;23.322;2023-10-31T00:22:18;94927.91;;;11.01
45976;BMP280;31696;42.668;23.322;2023-10-31T00:24:18;94930.66;;;11.03
45976;BMP280;31696;42.668;23.322;2023-10-31T00:26:18;94937.94;;;11.05
45976;BMP280;31696;42.668;23.322;2023-10-31T00:28:25;94926.16;;;11.04
45976;BMP280;31696;42.668;23.322;2023-10-31T00:30:25;94926.53;;;11.00
45976;BMP280;31696;42.668;23.322;2023-10-31T00:32:25;94923.75;;;11.06
45976;BMP280;31696;42.668;23.322;2023-10-31T00:34:26;94923.41;;;10.94
45976;BMP280;31696;42.668;23.322;2023-10-31T00:36:26;94928.22;;;11.13
45976;BMP280;31696;42.668;23.322;2023-10-31T00:38:26;94928.25;;;11.05
45976;BMP280;31696;42.668;23.322;2023-10-31T00:40:27;94919.59;;;10.95
45976;BMP280;31696;42.668;23.322;2023-10-31T00:42:27;94919.94;;;10.92
45976;BMP280;31696;42.668;23.322;2023-10-31T00:44:27;94917.88;;;10.90
45976;BMP280;31696;42.668;23.322;2023-10-31T00:46:29;94915.78;;;10.89
45976;BMP280;31696;42.668;23.322;2023-10-31T00:48:29;94923.22;;;10.92
45976;BMP280;31696;42.668;23.322;2023-10-31T00:50:29;94915.75;;;10.96
45976;BMP280;31696;42.668;23.322;2023-10-31T00:52:30;94915.78;;;10.89
45976;BMP280;31696;42.668;23.322;2023-10-31T00:54:30;94919.75;;;10.82
45976;BMP280;31696;42.668;23.322;2023-10-31T00:56:30;94915.63;;;11.10
45976;BMP280;31696;42.668;23.322;2023-10-31T00:58:31;94910.75;;;10.83
45976;BMP280;31696;42.668;23.322;2023-10-31T01:00:31;94906.94;;;10.77
45976;BMP280;31696;42.668;23.322;2023-10-31T01:02:34;94902.63;;;10.79
45976;BMP280;31696;42.668;23.322;2023-10-31T01:04:35;94903.84;;;10.78
45976;BMP280;31696;42.668;23.322;2023-10-31T01:06:40;94899.50;;;10.88
45976;BMP280;31696;42.668;23.322;2023-10-31T01:08:40;94896.75;;;10.79
45976;BMP280;31696;42.668;23.322;2023-10-31T01:10:40;94900.72;;;10.80
45976;BMP280;31696;42.668;23.322;2023-10-31T01:12:41;94898.78;;;10.65
45976;BMP280;31696;42.668;23.322;2023-10-31T01:14:41;94897.41;;;10.64
45976;BMP280;31696;42.668;23.322;2023-10-31T01:16:41;94896.03;;;10.78
45976;BMP280;31696;42.668;23.322;2023-10-31T01:18:43;94893.06;;;10.59
45976;BMP280;31696;42.668;23.322;2023-10-31T01:20:43;94890.78;;;10.48
45976;BMP280;31696;42.668;23.322;2023-10-31T01:22:43;94882.47;;;10.42
45976;BMP280;31696;42.668;23.322;2023-10-31T01:24:45;94887.88;;;10.59
45976;BMP280;31696;42.668;23.322;2023-10-31T01:26:45;94893.94;;;10.54
45976;BMP280;31696;42.668;23.322;2023-10-31T01:28:45;94883.56;;;10.69
45976;BMP280;31696;42.668;23.322;2023-10-31T01:30:46;94884.22;;;10.47
45976;BMP280;31696;42.668;23.322;2023-10-31T01:32:46;94875.38;;;10.35
45976;BMP280;31696;42.668;23.322;2023-10-31T01:34:46;94880.78;;;10.52
45976;BMP280;31696;42.668;23.322;2023-10-31T01:36:47;94880.06;;;10.44
45976;BMP280;31696;42.668;23.322;2023-10-31T01:38:47;94877.47;;;10.44
45976;BMP280;31696;42.668;23.322;2023-10-31T01:40:51;94881.81;;;10.49
45976;BMP280;31696;42.668;23.322;2023-10-31T01:42:51;94884.22;;;10.47
45976;BMP280;31696;42.668;23.322;2023-10-31T01:44:51;94880.56;;;10.27
45976;BMP280;31696;42.668;23.322;2023-10-31T01:46:52;94872.38;;;10.16
45976;BMP280;31696;42.668;23.322;2023-10-31T01:48:52;94869.63;;;10.14
45976;BMP280;31696;42.668;23.322;2023-10-31T01:50:53;94874.81;;;10.14
45976;BMP280;31696;42.668;23.322;2023-10-31T01:52:53;94876.06;;;10.28
45976;BMP280;31696;42.668;23.322;2023-10-31T01:54:54;94884.88;;;10.32
45976;BMP280;31696;42.668;23.322;2023-10-31T01:56:55;94879.66;;;10.25
45976;BMP280;31696;42.668;23.322;2023-10-31T01:58:57;94873.09;;;10.24
45976;BMP280;31696;42.668;23.322;2023-10-31T02:00:59;94867.56;;;10.12
45976;BMP280;31696;42.668;23.322;2023-10-31T02:02:59;94866.66;;;10.10
45976;BMP280;31696;42.668;23.322;2023-10-31T02:05:00;94868.91;;;10.06
45976;BMP280;31696;42.668;23.322;2023-10-31T02:07:00;94868.06;;;10.11
45976;BMP280;31696;42.668;23.322;2023-10-31T02:09:00;94862.34;;;10.12
45976;BMP280;31696;42.668;23.322;2023-10-31T02:11:01;94873.28;;;10.18
45976;BMP280;31696;42.668;23.322;2023-10-31T02:13:14;94858.19;;;10.17
45976;BMP280;31696;42.668;23.322;2023-10-31T02:15:14;94856.81;;;10.08
45976;BMP280;31696;42.668;23.322;2023-10-31T02:17:15;94855.91;;;9.98
45976;BMP280;31696;42.668;23.322;2023-10-31T02:19:16;94850.19;;;9.99
45976;BMP280;31696;42.668;23.322;2023-10-31T02:21:19;94857.34;;;10.14
45976;BMP280;31696;42.668;23.322;2023-10-31T02:23:20;94848.88;;;10.21
45976;BMP280;31696;42.668;23.322;2023-10-31T02:25:20;94852.31;;;10.09
45976;BMP280;31696;42.668;23.322;2023-10-31T02:27:20;94848.31;;;10.08
45976;BMP280;31696;42.668;23.322;2023-10-31T02:29:21;94851.94;;;10.05
45976;BMP280;31696;42.668;23.322;2023-10-31T02:31:23;94851.59;;;10.00
45976;BMP280;31696;42.668;23.322;2023-10-31T02:33:23;94840.91;;;10.12
45976;BMP280;31696;42.668;23.322;2023-10-31T02:35:23;94845.41;;;10.11
45976;BMP280;31696;42.668;23.322;2023-10-31T02:37:24;94849.19;;;10.03
45976;BMP280;31696;42.668;23.322;2023-10-31T02:39:24;94851.28;;;10.12
45976;BMP280;31696;42.668;23.322;2023-10-31T02:41:24;94847.13;;;10.16
45976;BMP280;31696;42.668;23.322;2023-10-31T02:43:25;94842.63;;;10.17
45976;BMP280;31696;42.668;23.322;2023-10-31T02:45:25;94845.59;;;10.13
45976;BMP280;31696;42.668;23.322;2023-10-31T02:47:25;94852.97;;;10.02
45976;BMP280;31696;42.668;23.322;2023-10-31T02:49:26;94845.38;;;10.04
45976;BMP280;31696;42.668;23.322;2023-10-31T02:51:26;94853.69;;;10.10
45976;BMP280;31696;42.668;23.322;2023-10-31T02:53:26;94853.69;;;10.10
45976;BMP280;31696;42.668;23.322;2023-10-31T02:55:27;94851.41;;;10.06
45976;BMP280;31696;42.668;23.322;2023-10-31T02:57:27;94852.28;;;9.93
45976;BMP280;31696;42.668;23.322;2023-10-31T02:59:27;94846.88;;;9.91
45976;BMP280;31696;42.668;23.322;2023-10-31T03:01:28;94853.44;;;9.85
45976;BMP280;31696;42.668;23.322;2023-10-31T03:03:28;94850.50;;;9.88
45976;BMP280;31696;42.668;23.322;2023-10-31T03:05:29;94852.13;;;9.99
45976;BMP280;31696;42.668;23.322;2023-10-31T03:07:29;94851.25;;;9.96
45976;BMP280;31696;42.668;23.322;2023-10-31T03:09:30;94853.31;;;9.98
45976;BMP280;31696;42.668;23.322;2023-10-31T03:11:30;94851.88;;;9.89
45976;BMP280;31696;42.668;23.322;2023-10-31T03:13:32;94852.94;;;9.86
45976;BMP280;31696;42.668;23.322;2023-10-31T03:15:32;94845.81;;;9.79
45976;BMP280;31696;42.668;23.322;2023-10-31T03:17:33;94854.97;;;9.80
45976;BMP280;31696;42.668;23.322;2023-10-31T03:19:33;94849.84;;;9.88
45976;BMP280;31696;42.668;23.322;2023-10-31T03:21:33;94851.38;;;9.83
45976;BMP280;31696;42.668;23.322;2023-10-31T03:23:34;94851.88;;;9.89
45976;BMP280;31696;42.668;23.322;2023-10-31T03:25:34;94845.84;;;9.94
45976;BMP280;31696;42.668;23.322;2023-10-31T03:27:35;94843.25;;;9.94
45976;BMP280;31696;42.668;23.322;2023-10-31T03:29:35;94841.69;;;9.91
45976;BMP280;31696;42.668;23.322;2023-10-31T03:31:35;94837.00;;;9.82
45976;BMP280;31696;42.668;23.322;2023-10-31T03:33:36;94832.53;;;9.83
45976;BMP280;31696;42.668;23.322;2023-10-31T03:35:36;94830.84;;;10.08
45976;BMP280;31696;42.668;23.322;2023-10-31T03:37:36;94821.81;;;9.94
45976;BMP280;31696;42.668;23.322;2023-10-31T03:39:41;94810.00;;;9.70
45976;BMP280;31696;42.668;23.322;2023-10-31T03:41:41;94812.03;;;9.64
45976;BMP280;31696;42.668;23.322;2023-10-31T03:43:42;94818.66;;;9.80
45976;BMP280;31696;42.668;23.322;2023-10-31T03:45:42;94818.25;;;9.61
45976;BMP280;31696;42.668;23.322;2023-10-31T03:47:43;94823.03;;;9.50
45976;BMP280;31696;42.668;23.322;2023-10-31T03:49:43;94831.03;;;9.59
45976;BMP280;31696;42.668;23.322;2023-10-31T03:51:43;94816.88;;;9.60
45976;BMP280;31696;42.668;23.322;2023-10-31T03:53:44;94824.16;;;9.62
45976;BMP280;31696;42.668;23.322;2023-10-31T03:55:44;94826.59;;;9.67
45976;BMP280;31696;42.668;23.322;2023-10-31T03:57:45;94826.03;;;9.61
45976;BMP280;31696;42.668;23.322;2023-10-31T03:59:45;94832.44;;;9.60
45976;BMP280;31696;42.668;23.322;2023-10-31T04:01:45;94835.84;;;9.55
45976;BMP280;31696;42.668;23.322;2023-10-31T04:03:46;94830.88;;;9.57
45976;BMP280;31696;42.668;23.322;2023-10-31T04:05:46;94831.56;;;9.58
45976;BMP280;31696;42.668;23.322;2023-10-31T04:07:46;94826.19;;;9.56
45976;BMP280;31696;42.668;23.322;2023-10-31T04:09:47;94833.19;;;9.76
45976;BMP280;31696;42.668;23.322;2023-10-31T04:11:47;94836.63;;;9.71
45976;BMP280;31696;42.668;23.322;2023-10-31T04:13:47;94829.03;;;9.80
45976;BMP280;31696;42.668;23.322;2023-10-31T04:15:48;94832.47;;;9.75
45976;BMP280;31696;42.668;23.322;2023-10-31T04:17:48;94822.78;;;9.68
45976;BMP280;31696;42.668;23.322;2023-10-31T04:19:49;94821.19;;;9.65
45976;BMP280;31696;42.668;23.322;2023-10-31T04:21:49;94814.81;;;9.74
45976;BMP280;31696;42.668;23.322;2023-10-31T04:23:49;94816.63;;;9.86
45976;BMP280;31696;42.668;23.322;2023-10-31T04:25:50;94814.72;;;9.87
45976;BMP280;31696;42.668;23.322;2023-10-31T04:27:52;94803.19;;;10.11
45976;BMP280;31696;42.668;23.322;2023-10-31T04:29:52;94800.34;;;9.78
45976;BMP280;31696;42.668;23.322;2023-10-31T04:31:53;94792.97;;;9.54
45976;BMP280;31696;42.668;23.322;2023-10-31T04:33:53;94789.56;;;9.59
45976;BMP280;31696;42.668;23.322;2023-10-31T04:35:53;94806.66;;;10.06
45976;BMP280;31696;42.668;23.322;2023-10-31T04:37:54;94800.50;;;9.73
45976;BMP280;31696;42.668;23.322;2023-10-31T04:39:54;94806.28;;;9.51
45976;BMP280;31696;42.668;23.322;2023-10-31T04:41:55;94804.03;;;9.47
45976;BMP280;31696;42.668;23.322;2023-10-31T04:43:55;94807.34;;;9.55
45976;BMP280;31696;42.668;23.322;2023-10-31T04:45:56;94811.25;;;9.41
45976;BMP280;31696;42.668;23.322;2023-10-31T04:47:56;94814.13;;;9.66
45976;BMP280;31696;42.668;23.322;2023-10-31T04:49:56;94811.38;;;9.35
45976;BMP280;31696;42.668;23.322;2023-10-31T04:51:57;94807.81;;;9.46
45976;BMP280;31696;42.668;23.322;2023-10-31T04:53:57;94825.41;;;9.40
45976;BMP280;31696;42.668;23.322;2023-10-31T04:55:57;94827.41;;;9.26
45976;BMP280;31696;42.668;23.322;2023-10-31T04:57:58;94832.28;;;9.30
45976;BMP280;31696;42.668;23.322;2023-10-31T04:59:58;94832.53;;;9.47
45976;BMP280;31696;42.668;23.322;2023-10-31T05:01:59;94830.97;;;9.44
45976;BMP280;31696;42.668;23.322;2023-10-31T05:03:59;94843.75;;;9.42
45976;BMP280;31696;42.668;23.322;2023-10-31T05:06:00;94832.69;;;9.41
45976;BMP280;31696;42.668;23.322;2023-10-31T05:08:00;94830.59;;;9.40
45976;BMP280;31696;42.668;23.322;2023-10-31T05:10:00;94843.09;;;9.49
45976;BMP280;31696;42.668;23.322;2023-10-31T05:12:01;94832.91;;;9.51
45976;BMP280;31696;42.668;23.322;2023-10-31T05:14:01;94828.06;;;9.48
45976;BMP280;31696;42.668;23.322;2023-10-31T05:16:02;94828.84;;;9.35
45976;BMP280;31696;42.668;23.322;2023-10-31T05:18:02;94824.34;;;9.35
45976;BMP280;31696;42.668;23.322;2023-10-31T05:20:03;94831.28;;;9.40
45976;BMP280;31696;42.668;23.322;2023-10-31T05:22:03;94835.22;;;9.34
45976;BMP280;31696;42.668;23.322;2023-10-31T05:24:04;94840.00;;;9.58
45976;BMP280;31696;42.668;23.322;2023-10-31T05:26:05;94840.53;;;10.08
45976;BMP280;31696;42.668;23.322;2023-10-31T05:28:05;94832.06;;;9.56
45976;BMP280;31696;42.668;23.322;2023-10-31T05:30:06;94834.38;;;9.39
45976;BMP280;31696;42.668;23.322;2023-10-31T05:32:06;94842.38;;;9.41
45976;BMP280;31696;42.668;23.322;2023-10-31T05:34:07;94839.56;;;9.39
45976;BMP280;31696;42.668;23.322;2023-10-31T05:36:17;94834.09;;;9.42
45976;BMP280;31696;42.668;23.322;2023-10-31T05:38:17;94844.59;;;9.37
45976;BMP280;31696;42.668;23.322;2023-10-31T05:40:17;94854.31;;;9.44
45976;BMP280;31696;42.668;23.322;2023-10-31T05:42:18;94848.31;;;9.57
45976;BMP280;31696;42.668;23.322;2023-10-31T05:44:20;94843.28;;;9.51
45976;BMP280;31696;42.668;23.322;2023-10-31T05:46:21;94834.38;;;9.75
45976;BMP280;31696;42.668;23.322;2023-10-31T05:48:21;94831.78;;;9.67
45976;BMP280;31696;42.668;23.322;2023-10-31T05:50:21;94839.22;;;9.71
45976;BMP280;31696;42.668;23.322;2023-10-31T05:52:22;94848.00;;;9.60
45976;BMP280;31696;42.668;23.322;2023-10-31T05:54:22;94851.59;;;9.57
45976;BMP280;31696;42.668;23.322;2023-10-31T05:56:22;94849.91;;;9.67
45976;BMP280;31696;42.668;23.322;2023-10-31T05:58:23;94851.00;;;9.79
45976;BMP280;31696;42.668;23.322;2023-10-31T06:00:23;94864.22;;;9.96
45976;BMP280;31696;42.668;23.322;2023-10-31T06:02:23;94864.38;;;9.98
45976;BMP280;31696;42.668;23.322;2023-10-31T06:04:24;94878.97;;;10.09
45976;BMP280;31696;42.668;23.322;2023-10-31T06:06:25;94870.97;;;10.15
45976;BMP280;31696;42.668;23.322;2023-10-31T06:08:25;94872.03;;;10.12
45976;BMP280;31696;42.668;23.322;2023-10-31T06:10:28;94862.88;;;10.18
45976;BMP280;31696;42.668;23.322;2023-10-31T06:12:29;94881.59;;;10.32
45976;BMP280;31696;42.668;23.322;2023-10-31T06:14:29;94881.78;;;10.34
45976;BMP280;31696;42.668;23.322;2023-10-31T06:16:29;94886.28;;;10.41
45976;BMP280;31696;42.668;23.322;2023-10-31T06:18:30;94880.56;;;10.42
45976;BMP280;31696;42.668;23.322;2023-10-31T06:20:30;94876.28;;;10.45
45976;BMP280;31696;42.668;23.322;2023-10-31T06:22:31;94872.47;;;10.53
45976;BMP280;31696;42.668;23.322;2023-10-31T06:24:31;94872.81;;;10.50
45976;BMP280;31696;42.668;23.322;2023-10-31T06:26:32;94872.47;;;10.61
45976;BMP280;31696;42.668;23.322;2023-10-31T06:28:32;94873.19;;;10.69
45976;BMP280;31696;42.668;23.322;2023-10-31T06:30:34;94879.22;;;10.64
45976;BMP280;31696;42.668;23.322;2023-10-31T06:32:35;94867.28;;;10.61
45976;BMP280;31696;42.668;23.322;2023-10-31T06:34:35;94873.88;;;10.70
45976;BMP280;31696;42.668;23.322;2023-10-31T06:36:35;94882.69;;;10.89
45976;BMP280;31696;42.668;23.322;2023-10-31T06:38:36;94883.91;;;11.19
45976;BMP280;31696;42.668;23.322;2023-10-31T06:40:36;94871.06;;;11.13
45976;BMP280;31696;42.668;23.322;2023-10-31T06:42:37;94873.97;;;11.40
45976;BMP280;31696;42.668;23.322;2023-10-31T06:44:37;94877.59;;;11.52
45976;BMP280;31696;42.668;23.322;2023-10-31T06:46:38;94869.34;;;11.16
45976;BMP280;31696;42.668;23.322;2023-10-31T06:48:38;94863.44;;;11.07
45976;BMP280;31696;42.668;23.322;2023-10-31T06:50:38;94862.56;;;11.13
45976;BMP280;31696;42.668;23.322;2023-10-31T06:52:39;94868.97;;;11.19
45976;BMP280;31696;42.668;23.322;2023-10-31T06:54:39;94866.22;;;11.25
45976;BMP280;31696;42.668;23.322;2023-10-31T06:56:39;94863.72;;;11.42
45976;BMP280;31696;42.668;23.322;2023-10-31T06:58:40;94866.13;;;11.55
45976;BMP280;31696;42.668;23.322;2023-10-31T07:00:41;94875.88;;;11.47
45976;BMP280;31696;42.668;23.322;2023-10-31T07:02:41;94868.19;;;11.49
45976;BMP280;31696;42.668;23.322;2023-10-31T07:04:41;94876.78;;;11.82
45976;BMP280;31696;42.668;23.322;2023-10-31T07:06:41;94869.63;;;11.90
45976;BMP280;31696;42.668;23.322;2023-10-31T07:08:42;94875.38;;;11.81
45976;BMP280;31696;42.668;23.322;2023-10-31T07:10:42;94865.81;;;11.91
45976;BMP280;31696;42.668;23.322;2023-10-31T07:12:42;94869.22;;;12.01
45976;BMP280;31696;42.668;23.322;2023-10-31T07:14:43;94849.66;;;12.25
45976;BMP280;31696;42.668;23.322;2023-10-31T07:16:43;94853.38;;;12.14
45976;BMP280;31696;42.668;23.322;2023-10-31T07:18:44;94851.13;;;12.35
45976;BMP280;31696;42.668;23.322;2023-10-31T07:20:44;94856.16;;;12.41
45976;BMP280;31696;42.668;23.322;2023-10-31T07:22:44;94853.69;;;12.67
45976;BMP280;31696;42.668;23.322;2023-10-31T07:24:45;94854.66;;;13.75
45976;BMP280;31696;42.668;23.322;2023-10-31T07:26:45;94849.75;;;14.51
45976;BMP280;31696;42.668;23.322;2023-10-31T07:28:46;94845.41;;;14.73
45976;BMP280;31696;42.668;23.322;2023-10-31T07:30:47;94853.53;;;15.35
45976;BMP280;31696;42.668;23.322;2023-10-31T07:32:47;94845.50;;;15.61
45976;BMP280;31696;42.668;23.322;2023-10-31T07:34:48;94846.25;;;15.83
45976;BMP280;31696;42.668;23.322;2023-10-31T07:36:48;94848.97;;;15.95
45976;BMP280;31696;42.668;23.322;2023-10-31T07:38:48;94847.19;;;16.49
45976;BMP280;31696;42.668;23.322;2023-10-31T07:40:49;94846.75;;;16.95
45976;BMP280;31696;42.668;23.322;2023-10-31T07:42:49;94838.72;;;17.93
45976;BMP280;31696;42.668;23.322;2023-10-31T07:44:49;94830.09;;;18.27
45976;BMP280;31696;42.668;23.322;2023-10-31T07:46:51;94828.88;;;17.82
45976;BMP280;31696;42.668;23.322;2023-10-31T07:48:51;94831.81;;;18.35
45976;BMP280;31696;42.668;23.322;2023-10-31T07:50:51;94831.00;;;18.44
45976;BMP280;31696;42.668;23.322;2023-10-31T07:52:52;94820.56;;;18.82
45976;BMP280;31696;42.668;23.322;2023-10-31T07:54:53;94810.72;;;19.60
45976;BMP280;31696;42.668;23.322;2023-10-31T07:56:53;94812.00;;;20.43
45976;BMP280;31696;42.668;23.322;2023-10-31T07:58:55;94808.66;;;20.43
45976;BMP280;31696;42.668;23.322;2023-10-31T08:00:55;94808.63;;;20.85
45976;BMP280;31696;42.668;23.322;2023-10-31T08:02:56;94808.97;;;20.06
45976;BMP280;31696;42.668;23.322;2023-10-31T08:04:56;94802.53;;;19.82
45976;BMP280;31696;42.668;23.322;2023-10-31T08:06:57;94793.94;;;19.67
45976;BMP280;31696;42.668;23.322;2023-10-31T08:08:57;94798.91;;;19.48
45976;BMP280;31696;42.668;23.322;2023-10-31T08:10:57;94796.34;;;19.23
45976;BMP280;31696;42.668;23.322;2023-10-31T08:12:59;94795.94;;;18.64
45976;BMP280;31696;42.668;23.322;2023-10-31T08:14:59;94800.63;;;18.66
45976;BMP280;31696;42.668;23.322;2023-10-31T08:17:00;94802.09;;;18.32
45976;BMP280;31696;42.668;23.322;2023-10-31T08:19:00;94789.13;;;17.99
45976;BMP280;31696;42.668;23.322;2023-10-31T08:21:00;94793.72;;;17.52
45976;BMP280;31696;42.668;23.322;2023-10-31T08:23:01;94788.63;;;17.22
45976;BMP280;31696;42.668;23.322;2023-10-31T08:25:02;94789.81;;;17.42
45976;BMP280;31696;42.668;23.322;2023-10-31T08:27:03;94784.13;;;17.34
45976;BMP280;31696;42.668;23.322;2023-10-31T08:29:04;94782.38;;;17.15
45976;BMP280;31696;42.668;23.322;2023-10-31T08:31:04;94777.94;;;17.41
45976;BMP280;31696;42.668;23.322;2023-10-31T08:33:05;94776.81;;;17.90
45976;BMP280;31696;42.668;23.322;2023-10-31T08:35:05;94764.47;;;17.93
45976;BMP280;31696;42.668;23.322;2023-10-31T08:37:06;94761.75;;;17.79
45976;BMP280;31696;42.668;23.322;2023-10-31T08:39:06;94753.16;;;18.39
45976;BMP280;31696;42.668;23.322;2023-10-31T08:41:06;94747.34;;;18.65
45976;BMP280;31696;42.668;23.322;2023-10-31T08:43:07;94761.81;;;19.03
45976;BMP280;31696;42.668;23.322;2023-10-31T08:45:07;94749.97;;;18.90
45976;BMP280;31696;42.668;23.322;2023-10-31T08:47:08;94746.66;;;18.65
45976;BMP280;31696;42.668;23.322;2023-10-31T08:49:08;94743.91;;;18.88
45976;BMP280;31696;42.668;23.322;2023-10-31T08:51:08;94735.03;;;18.81
45976;BMP280;31696;42.668;23.322;2023-10-31T08:53:09;94727.97;;;19.11
45976;BMP280;31696;42.668;23.322;2023-10-31T08:55:09;94723.91;;;19.08
45976;BMP280;31696;42.668;23.322;2023-10-31T08:57:10;94726.78;;;18.62
45976;BMP280;31696;42.668;23.322;2023-10-31T08:59:10;94719.31;;;18.70
45976;BMP280;31696;42.668;23.322;2023-10-31T09:01:10;94717.34;;;18.70
45976;BMP280;31696;42.668;23.322;2023-10-31T09:03:11;94716.94;;;19.01
45976;BMP280;31696;42.668;23.322;2023-10-31T09:05:11;94716.88;;;18.74
45976;BMP280;31696;42.668;23.322;2023-10-31T09:07:11;94716.09;;;18.46
45976;BMP280;31696;42.668;23.322;2023-10-31T09:09:12;94707.44;;;18.44
45976;BMP280;31696;42.668;23.322;2023-10-31T09:11:13;94696.22;;;18.43
45976;BMP280;31696;42.668;23.322;2023-10-31T09:13:14;94687.00;;;18.05
45976;BMP280;31696;42.668;23.322;2023-10-31T09:15:14;94691.47;;;18.28
45976;BMP280;31696;42.668;23.322;2023-10-31T09:17:17;94693.34;;;18.25
45976;BMP280;31696;42.668;23.322;2023-10-31T09:19:18;94683.28;;;18.22
45976;BMP280;31696;42.668;23.322;2023-10-31T09:21:19;94673.41;;;18.34
45976;BMP280;31696;42.668;23.322;2023-10-31T09:23:20;94686.66;;;18.36
45976;BMP280;31696;42.668;23.322;2023-10-31T09:25:20;94681.06;;;18.55
45976;BMP280;31696;42.668;23.322;2023-10-31T09:27:23;94677.03;;;18.66
45976;BMP280;31696;42.668;23.322;2023-10-31T09:29:24;94664.56;;;18.41
45976;BMP280;31696;42.668;23.322;2023-10-31T09:31:24;94659.78;;;18.38
45976;BMP280;31696;42.668;23.322;2023-10-31T09:33:24;94661.97;;;18.55
45976;BMP280;31696;42.668;23.322;2023-10-31T09:35:25;94658.44;;;18.37
45976;BMP280;31696;42.668;23.322;2023-10-31T09:37:26;94656.84;;;18.57
45976;BMP280;31696;42.668;23.322;2023-10-31T09:39:26;94649.53;;;18.69
45976;BMP280;31696;42.668;23.322;2023-10-31T09:41:28;94643.78;;;18.59
45976;BMP280;31696;42.668;23.322;2023-10-31T09:43:29;94642.22;;;18.54
45976;BMP280;31696;42.668;23.322;2023-10-31T09:45:29;94631.25;;;18.57
45976;BMP280;31696;42.668;23.322;2023-10-31T09:47:30;94626.56;;;18.56
45976;BMP280;31696;42.668;23.322;2023-10-31T09:49:30;94634.63;;;18.60
45976;BMP280;31696;42.668;23.322;2023-10-31T09:51:30;94637.44;;;18.50
45976;BMP280;31696;42.668;23.322;2023-10-31T09:53:31;94621.25;;;18.42
45976;BMP280;31696;42.668;23.322;2023-10-31T09:55:32;94616.31;;;18.48
45976;BMP280;31696;42.668;23.322;2023-10-31T09:57:33;94611.16;;;18.64
45976;BMP280;31696;42.668;23.322;2023-10-31T09:59:34;94609.63;;;18.59
45976;BMP280;31696;42.668;23.322;2023-10-31T10:01:37;94608.16;;;18.69
45976;BMP280;31696;42.668;23.322;2023-10-31T10:03:37;94605.84;;;18.62
45976;BMP280;31696;42.668;23.322;2023-10-31T10:05:38;94595.31;;;18.62
45976;BMP280;31696;42.668;23.322;2023-10-31T10:07:40;94590.44;;;18.70
45976;BMP280;31696;42.668;23.322;2023-10-31T10:09:41;94589.28;;;19.00
45976;BMP280;31696;42.668;23.322;2023-10-31T10:11:42;94583.06;;;19.07
45976;BMP280;31696;42.668;23.322;2023-10-31T10:13:43;94578.28;;;19.04
45976;BMP280;31696;42.668;23.322;2023-10-31T10:15:44;94579.63;;;18.77
45976;BMP280;31696;42.668;23.322;2023-10-31T10:17:48;94567.56;;;18.86
45976;BMP280;31696;42.668;23.322;2023-10-31T10:20:08;94571.34;;;19.10
45976;BMP280;31696;42.668;23.322;2023-10-31T10:22:09;94561.41;;;18.95
45976;BMP280;31696;42.668;23.322;2023-10-31T10:24:10;94569.13;;;18.77
45976;BMP280;31696;42.668;23.322;2023-10-31T10:26:10;94551.19;;;18.74
45976;BMP280;31696;42.668;23.322;2023-10-31T10:28:11;94559.66;;;18.59
45976;BMP280;31696;42.668;23.322;2023-10-31T10:30:14;94556.94;;;18.57
45976;BMP280;31696;42.668;23.322;2023-10-31T10:32:14;94549.22;;;18.47
45976;BMP280;31696;42.668;23.322;2023-10-31T10:34:15;94554.00;;;18.51
45976;BMP280;31696;42.668;23.322;2023-10-31T10:36:18;94553.94;;;18.62
45976;BMP280;31696;42.668;23.322;2023-10-31T10:38:19;94547.59;;;18.81
45976;BMP280;31696;42.668;23.322;2023-10-31T10:40:19;94543.41;;;18.76
45976;BMP280;31696;42.668;23.322;2023-10-31T10:42:31;94538.03;;;18.74
45976;BMP280;31696;42.668;23.322;2023-10-31T10:44:34;94529.66;;;18.91
45976;BMP280;31696;42.668;23.322;2023-10-31T10:46:35;94528.28;;;19.17
45976;BMP280;31696;42.668;23.322;2023-10-31T10:48:35;94521.81;;;19.34
45976;BMP280;31696;42.668;23.322;2023-10-31T10:50:41;94514.25;;;19.42
45976;BMP280;31696;42.668;23.322;2023-10-31T10:52:44;94502.56;;;19.31
45976;BMP280;31696;42.668;23.322;2023-10-31T10:55:01;94496.88;;;19.21
45976;BMP280;31696;42.668;23.322;2023-10-31T10:57:14;94498.91;;;19.23
45976;BMP280;31696;42.668;23.322;2023-10-31T10:59:18;94494.50;;;19.27
45976;BMP280;31696;42.668;23.322;2023-10-31T11:01:20;94486.03;;;19.29
45976;BMP280;31696;42.668;23.322;2023-10-31T11:03:20;94483.63;;;19.48
45976;BMP280;31696;42.668;23.322;2023-10-31T11:05:23;94490.22;;;19.34
45976;BMP280;31696;42.668;23.322;2023-10-31T11:07:23;94489.06;;;19.23
45976;BMP280;31696;42.668;23.322;2023-10-31T11:09:24;94497.78;;;19.12
45976;BMP280;31696;42.668;23.322;2023-10-31T11:11:25;94483.97;;;19.27
45976;BMP280;31696;42.668;23.322;2023-10-31T11:13:25;94478.47;;;19.37
45976;BMP280;31696;42.668;23.322;2023-10-31T11:15:26;94466.75;;;19.24
45976;BMP280;31696;42.668;23.322;2023-10-31T11:17:28;94481.06;;;19.21
45976;BMP280;31696;42.668;23.322;2023-10-31T11:19:29;94473.66;;;19.18
45976;BMP280;31696;42.668;23.322;2023-10-31T11:21:30;94459.03;;;19.28
45976;BMP280;31696;42.668;23.322;2023-10-31T11:23:31;94459.47;;;19.38
45976;BMP280;31696;42.668;23.322;2023-10-31T11:25:31;94451.41;;;19.34
45976;BMP280;31696;42.668;23.322;2023-10-31T11:27:33;94457.25;;;19.33